sensor_id;sensor_type;location;lat;lon;timestamp;P1;durP1;ratioP1;P2;durP2;ratioP2
14052;SDS011;7101;51.600;7.310;2023-03-31T00:00:53;5.85;;;2.00;;
14052;SDS011;7101;51.600;7.310;2023-03-31T00:03:29;5.10;;;1.70;;
14052;SDS011;7101;51.600;7.310;2023-03-31T00:06:03;7.25;;;1.98;;
14052;SDS011;7101;51.600;7.310;2023-03-31T00:08:37;7.30;;;2.25;;
14052;SDS011;7101;51.600;7.310;2023-03-31T00:11:05;6.15;;;1.85;;
14052;SDS011;7101;51.600;7.310;2023-03-31T00:13:32;6.07;;;1.55;;
14052;SDS011;7101;51.600;7.310;2023-03-31T00:16:03;5.30;;;1.85;;
14052;SDS011;7101;51.600;7.310;2023-03-31T00:18:35;4.25;;;1.65;;
14052;SDS011;7101;51.600;7.310;2023-03-31T00:21:12;7.32;;;2.13;;
14052;SDS011;7101;51.600;7.310;2023-03-31T00:23:49;5.40;;;1.60;;
14052;SDS011;7101;51.600;7.310;2023-03-31T00:26:17;4.63;;;1.50;;
14052;SDS011;7101;51.600;7.310;2023-03-31T00:28:43;7.53;;;1.73;;
14052;SDS011;7101;51.600;7.310;2023-03-31T00:31:11;4.13;;;1.67;;
14052;SDS011;7101;51.600;7.310;2023-03-31T00:33:42;4.28;;;1.70;;
14052;SDS011;7101;51.600;7.310;2023-03-31T00:36:09;5.00;;;1.35;;
14052;SDS011;7101;51.600;7.310;2023-03-31T00:38:35;5.97;;;1.75;;
14052;SDS011;7101;51.600;7.310;2023-03-31T00:41:04;6.18;;;1.75;;
14052;SDS011;7101;51.600;7.310;2023-03-31T00:43:33;4.25;;;1.33;;
14052;SDS011;7101;51.600;7.310;2023-03-31T00:46:06;6.35;;;1.80;;
14052;SDS011;7101;51.600;7.310;2023-03-31T00:48:39;4.57;;;2.15;;
14052;SDS011;7101;51.600;7.310;2023-03-31T00:51:12;6.30;;;2.03;;
14052;SDS011;7101;51.600;7.310;2023-03-31T00:53:44;4.70;;;1.63;;
14052;SDS011;7101;51.600;7.310;2023-03-31T00:56:19;4.88;;;1.88;;
14052;SDS011;7101;51.600;7.310;2023-03-31T00:58:53;6.57;;;2.20;;
14052;SDS011;7101;51.600;7.310;2023-03-31T01:01:23;7.47;;;2.05;;
14052;SDS011;7101;51.600;7.310;2023-03-31T01:03:54;6.55;;;1.52;;
14052;SDS011;7101;51.600;7.310;2023-03-31T01:06:24;5.18;;;1.83;;
14052;SDS011;7101;51.600;7.310;2023-03-31T01:08:56;6.95;;;2.40;;
14052;SDS011;7101;51.600;7.310;2023-03-31T01:11:25;4.63;;;1.70;;
14052;SDS011;7101;51.600;7.310;2023-03-31T01:13:54;9.00;;;2.00;;
14052;SDS011;7101;51.600;7.310;2023-03-31T01:16:23;5.05;;;1.77;;
14052;SDS011;7101;51.600;7.310;2023-03-31T01:18:50;5.05;;;1.60;;
14052;SDS011;7101;51.600;7.310;2023-03-31T01:21:32;6.55;;;1.95;;
14052;SDS011;7101;51.600;7.310;2023-03-31T01:24:40;8.80;;;1.77;;
14052;SDS011;7101;51.600;7.310;2023-03-31T01:27:36;7.70;;;2.13;;
14052;SDS011;7101;51.600;7.310;2023-03-31T01:30:32;6.82;;;1.70;;
14052;SDS011;7101;51.600;7.310;2023-03-31T01:33:32;4.88;;;1.60;;
14052;SDS011;7101;51.600;7.310;2023-03-31T01:36:38;8.40;;;1.80;;
14052;SDS011;7101;51.600;7.310;2023-03-31T01:42:32;4.72;;;1.55;;
14052;SDS011;7101;51.600;7.310;2023-03-31T01:45:04;6.20;;;1.80;;
14052;SDS011;7101;51.600;7.310;2023-03-31T01:47:41;9.32;;;1.92;;
14052;SDS011;7101;51.600;7.310;2023-03-31T01:50:14;6.38;;;2.00;;
14052;SDS011;7101;51.600;7.310;2023-03-31T01:52:48;7.22;;;1.90;;
14052;SDS011;7101;51.600;7.310;2023-03-31T01:55:23;6.15;;;1.90;;
14052;SDS011;7101;51.600;7.310;2023-03-31T01:57:56;6.72;;;2.00;;
14052;SDS011;7101;51.600;7.310;2023-03-31T02:00:28;8.35;;;2.05;;
14052;SDS011;7101;51.600;7.310;2023-03-31T02:02:59;6.07;;;2.13;;
14052;SDS011;7101;51.600;7.310;2023-03-31T02:05:32;4.93;;;1.60;;
14052;SDS011;7101;51.600;7.310;2023-03-31T02:08:04;7.55;;;1.70;;
14052;SDS011;7101;51.600;7.310;2023-03-31T02:10:36;5.75;;;1.83;;
14052;SDS011;7101;51.600;7.310;2023-03-31T02:13:06;7.00;;;1.73;;
14052;SDS011;7101;51.600;7.310;2023-03-31T02:15:35;8.10;;;2.05;;
14052;SDS011;7101;51.600;7.310;2023-03-31T02:18:06;7.15;;;1.83;;
14052;SDS011;7101;51.600;7.310;2023-03-31T02:20:37;6.55;;;2.17;;
14052;SDS011;7101;51.600;7.310;2023-03-31T02:23:06;6.10;;;1.77;;
14052;SDS011;7101;51.600;7.310;2023-03-31T02:25:39;6.75;;;1.85;;
14052;SDS011;7101;51.600;7.310;2023-03-31T02:28:12;8.25;;;1.92;;
14052;SDS011;7101;51.600;7.310;2023-03-31T02:30:45;7.47;;;1.83;;
14052;SDS011;7101;51.600;7.310;2023-03-31T02:33:18;8.18;;;1.98;;
14052;SDS011;7101;51.600;7.310;2023-03-31T02:35:45;9.20;;;1.92;;
14052;SDS011;7101;51.600;7.310;2023-03-31T02:38:12;11.50;;;2.38;;
14052;SDS011;7101;51.600;7.310;2023-03-31T02:40:41;10.65;;;2.25;;
14052;SDS011;7101;51.600;7.310;2023-03-31T02:43:09;9.52;;;2.20;;
14052;SDS011;7101;51.600;7.310;2023-03-31T02:45:38;8.68;;;2.28;;
14052;SDS011;7101;51.600;7.310;2023-03-31T02:48:08;8.82;;;2.30;;
14052;SDS011;7101;51.600;7.310;2023-03-31T02:50:42;10.55;;;2.28;;
14052;SDS011;7101;51.600;7.310;2023-03-31T02:53:24;7.32;;;1.95;;
14052;SDS011;7101;51.600;7.310;2023-03-31T02:56:03;7.97;;;2.20;;
14052;SDS011;7101;51.600;7.310;2023-03-31T02:58:43;7.63;;;2.50;;
14052;SDS011;7101;51.600;7.310;2023-03-31T03:01:25;7.70;;;1.85;;
14052;SDS011;7101;51.600;7.310;2023-03-31T03:04:06;7.38;;;1.90;;
14052;SDS011;7101;51.600;7.310;2023-03-31T03:06:51;11.18;;;2.17;;
14052;SDS011;7101;51.600;7.310;2023-03-31T03:09:26;7.47;;;1.98;;
14052;SDS011;7101;51.600;7.310;2023-03-31T03:12:07;7.35;;;2.20;;
14052;SDS011;7101;51.600;7.310;2023-03-31T03:14:39;11.38;;;2.40;;
14052;SDS011;7101;51.600;7.310;2023-03-31T03:17:12;8.85;;;2.50;;
14052;SDS011;7101;51.600;7.310;2023-03-31T03:19:43;11.35;;;2.30;;
14052;SDS011;7101;51.600;7.310;2023-03-31T03:22:16;11.13;;;2.42;;
14052;SDS011;7101;51.600;7.310;2023-03-31T03:24:43;12.35;;;2.88;;
14052;SDS011;7101;51.600;7.310;2023-03-31T03:27:12;9.98;;;2.30;;
14052;SDS011;7101;51.600;7.310;2023-03-31T03:29:39;10.85;;;2.50;;
14052;SDS011;7101;51.600;7.310;2023-03-31T03:32:07;13.60;;;2.85;;
14052;SDS011;7101;51.600;7.310;2023-03-31T03:34:35;11.25;;;2.83;;
14052;SDS011;7101;51.600;7.310;2023-03-31T03:37:02;9.23;;;2.58;;
14052;SDS011;7101;51.600;7.310;2023-03-31T03:39:29;13.18;;;3.00;;
14052;SDS011;7101;51.600;7.310;2023-03-31T03:41:56;8.70;;;2.58;;
14052;SDS011;7101;51.600;7.310;2023-03-31T03:44:24;7.80;;;2.17;;
14052;SDS011;7101;51.600;7.310;2023-03-31T03:46:51;7.95;;;2.28;;
14052;SDS011;7101;51.600;7.310;2023-03-31T03:49:18;8.40;;;2.33;;
14052;SDS011;7101;51.600;7.310;2023-03-31T03:51:46;9.15;;;2.72;;
14052;SDS011;7101;51.600;7.310;2023-03-31T03:54:14;10.23;;;2.60;;
14052;SDS011;7101;51.600;7.310;2023-03-31T03:56:41;9.18;;;2.30;;
14052;SDS011;7101;51.600;7.310;2023-03-31T03:59:09;9.52;;;2.55;;
14052;SDS011;7101;51.600;7.310;2023-03-31T04:01:38;8.60;;;2.58;;
14052;SDS011;7101;51.600;7.310;2023-03-31T04:04:05;10.90;;;2.45;;
14052;SDS011;7101;51.600;7.310;2023-03-31T04:06:34;9.45;;;2.72;;
14052;SDS011;7101;51.600;7.310;2023-03-31T04:09:01;9.68;;;2.63;;
14052;SDS011;7101;51.600;7.310;2023-03-31T04:11:29;9.85;;;3.10;;
14052;SDS011;7101;51.600;7.310;2023-03-31T04:13:56;12.15;;;3.17;;
14052;SDS011;7101;51.600;7.310;2023-03-31T04:16:23;9.90;;;2.85;;
14052;SDS011;7101;51.600;7.310;2023-03-31T04:18:52;15.63;;;3.22;;
14052;SDS011;7101;51.600;7.310;2023-03-31T04:21:21;10.13;;;2.78;;
14052;SDS011;7101;51.600;7.310;2023-03-31T04:23:51;9.23;;;2.63;;
14052;SDS011;7101;51.600;7.310;2023-03-31T04:26:26;10.57;;;2.55;;
14052;SDS011;7101;51.600;7.310;2023-03-31T04:29:03;8.65;;;2.70;;
14052;SDS011;7101;51.600;7.310;2023-03-31T04:31:31;13.05;;;2.47;;
14052;SDS011;7101;51.600;7.310;2023-03-31T04:34:04;9.30;;;2.60;;
14052;SDS011;7101;51.600;7.310;2023-03-31T04:36:42;11.10;;;2.58;;
14052;SDS011;7101;51.600;7.310;2023-03-31T04:39:11;6.90;;;2.10;;
14052;SDS011;7101;51.600;7.310;2023-03-31T04:41:39;9.02;;;2.83;;
14052;SDS011;7101;51.600;7.310;2023-03-31T04:44:07;9.63;;;2.47;;
14052;SDS011;7101;51.600;7.310;2023-03-31T04:46:34;11.90;;;2.88;;
14052;SDS011;7101;51.600;7.310;2023-03-31T04:49:01;8.43;;;3.63;;
14052;SDS011;7101;51.600;7.310;2023-03-31T04:51:31;10.57;;;3.35;;
14052;SDS011;7101;51.600;7.310;2023-03-31T04:53:58;8.80;;;2.75;;
14052;SDS011;7101;51.600;7.310;2023-03-31T04:56:25;9.50;;;2.65;;
14052;SDS011;7101;51.600;7.310;2023-03-31T04:58:52;9.55;;;2.38;;
14052;SDS011;7101;51.600;7.310;2023-03-31T05:01:19;10.10;;;2.90;;
14052;SDS011;7101;51.600;7.310;2023-03-31T05:03:46;9.38;;;2.58;;
14052;SDS011;7101;51.600;7.310;2023-03-31T05:06:13;14.27;;;2.78;;
14052;SDS011;7101;51.600;7.310;2023-03-31T05:08:41;8.73;;;2.15;;
14052;SDS011;7101;51.600;7.310;2023-03-31T05:11:09;12.82;;;2.88;;
14052;SDS011;7101;51.600;7.310;2023-03-31T05:13:36;7.60;;;2.08;;
14052;SDS011;7101;51.600;7.310;2023-03-31T05:16:07;7.50;;;2.35;;
14052;SDS011;7101;51.600;7.310;2023-03-31T05:18:35;8.18;;;2.30;;
14052;SDS011;7101;51.600;7.310;2023-03-31T05:21:09;9.57;;;2.13;;
14052;SDS011;7101;51.600;7.310;2023-03-31T05:23:37;6.72;;;2.10;;
14052;SDS011;7101;51.600;7.310;2023-03-31T05:26:05;7.80;;;2.15;;
14052;SDS011;7101;51.600;7.310;2023-03-31T05:28:33;9.75;;;2.90;;
14052;SDS011;7101;51.600;7.310;2023-03-31T05:31:00;8.55;;;2.03;;
14052;SDS011;7101;51.600;7.310;2023-03-31T05:33:30;6.47;;;2.17;;
14052;SDS011;7101;51.600;7.310;2023-03-31T05:35:58;6.90;;;1.92;;
14052;SDS011;7101;51.600;7.310;2023-03-31T05:38:25;8.82;;;1.80;;
14052;SDS011;7101;51.600;7.310;2023-03-31T05:40:56;7.88;;;1.90;;
14052;SDS011;7101;51.600;7.310;2023-03-31T05:43:24;5.55;;;1.83;;
14052;SDS011;7101;51.600;7.310;2023-03-31T05:45:51;7.20;;;1.90;;
14052;SDS011;7101;51.600;7.310;2023-03-31T05:48:18;9.30;;;2.35;;
14052;SDS011;7101;51.600;7.310;2023-03-31T05:50:46;6.00;;;2.17;;
14052;SDS011;7101;51.600;7.310;2023-03-31T05:53:13;12.05;;;2.47;;
14052;SDS011;7101;51.600;7.310;2023-03-31T05:55:40;10.65;;;2.00;;
14052;SDS011;7101;51.600;7.310;2023-03-31T05:58:07;7.72;;;2.08;;
14052;SDS011;7101;51.600;7.310;2023-03-31T06:00:35;5.95;;;1.90;;
14052;SDS011;7101;51.600;7.310;2023-03-31T06:03:02;8.18;;;2.20;;
14052;SDS011;7101;51.600;7.310;2023-03-31T06:05:31;6.47;;;2.00;;
14052;SDS011;7101;51.600;7.310;2023-03-31T06:07:59;4.78;;;1.90;;
14052;SDS011;7101;51.600;7.310;2023-03-31T06:10:26;6.07;;;1.90;;
14052;SDS011;7101;51.600;7.310;2023-03-31T06:12:52;4.75;;;1.70;;
14052;SDS011;7101;51.600;7.310;2023-03-31T06:15:20;10.20;;;2.20;;
14052;SDS011;7101;51.600;7.310;2023-03-31T06:17:48;8.10;;;1.85;;
14052;SDS011;7101;51.600;7.310;2023-03-31T06:20:16;6.30;;;1.98;;
14052;SDS011;7101;51.600;7.310;2023-03-31T06:22:45;6.38;;;1.90;;
14052;SDS011;7101;51.600;7.310;2023-03-31T06:25:12;10.25;;;2.58;;
14052;SDS011;7101;51.600;7.310;2023-03-31T06:27:40;6.82;;;2.20;;
14052;SDS011;7101;51.600;7.310;2023-03-31T06:30:08;7.18;;;2.25;;
14052;SDS011;7101;51.600;7.310;2023-03-31T06:32:36;3.85;;;1.73;;
14052;SDS011;7101;51.600;7.310;2023-03-31T06:35:06;7.53;;;2.38;;
14052;SDS011;7101;51.600;7.310;2023-03-31T06:37:33;4.05;;;1.75;;
14052;SDS011;7101;51.600;7.310;2023-03-31T06:40:00;7.20;;;1.75;;
14052;SDS011;7101;51.600;7.310;2023-03-31T06:42:30;4.85;;;1.80;;
14052;SDS011;7101;51.600;7.310;2023-03-31T06:44:57;5.78;;;1.85;;
14052;SDS011;7101;51.600;7.310;2023-03-31T06:47:30;5.65;;;1.70;;
14052;SDS011;7101;51.600;7.310;2023-03-31T06:49:58;5.07;;;1.70;;
14052;SDS011;7101;51.600;7.310;2023-03-31T06:52:29;4.32;;;1.67;;
14052;SDS011;7101;51.600;7.310;2023-03-31T06:54:57;4.82;;;1.33;;
14052;SDS011;7101;51.600;7.310;2023-03-31T06:57:26;3.67;;;1.52;;
14052;SDS011;7101;51.600;7.310;2023-03-31T06:59:54;6.07;;;1.75;;
14052;SDS011;7101;51.600;7.310;2023-03-31T07:02:22;5.45;;;2.17;;
14052;SDS011;7101;51.600;7.310;2023-03-31T07:04:49;8.40;;;1.83;;
14052;SDS011;7101;51.600;7.310;2023-03-31T07:07:15;4.03;;;1.27;;
14052;SDS011;7101;51.600;7.310;2023-03-31T07:09:44;4.20;;;1.95;;
14052;SDS011;7101;51.600;7.310;2023-03-31T07:12:11;5.03;;;1.77;;
14052;SDS011;7101;51.600;7.310;2023-03-31T07:14:39;6.97;;;1.70;;
14052;SDS011;7101;51.600;7.310;2023-03-31T07:17:06;5.82;;;1.50;;
14052;SDS011;7101;51.600;7.310;2023-03-31T07:19:35;4.80;;;1.67;;
14052;SDS011;7101;51.600;7.310;2023-03-31T07:22:11;3.75;;;2.05;;
14052;SDS011;7101;51.600;7.310;2023-03-31T07:24:46;3.42;;;2.67;;
14052;SDS011;7101;51.600;7.310;2023-03-31T07:27:18;6.25;;;2.00;;
14052;SDS011;7101;51.600;7.310;2023-03-31T07:29:47;5.15;;;1.88;;
14052;SDS011;7101;51.600;7.310;2023-03-31T07:32:14;7.22;;;1.83;;
14052;SDS011;7101;51.600;7.310;2023-03-31T07:34:43;4.10;;;1.40;;
14052;SDS011;7101;51.600;7.310;2023-03-31T07:37:13;4.63;;;1.60;;
14052;SDS011;7101;51.600;7.310;2023-03-31T07:39:55;3.83;;;1.50;;
14052;SDS011;7101;51.600;7.310;2023-03-31T07:42:22;4.35;;;1.30;;
14052;SDS011;7101;51.600;7.310;2023-03-31T07:44:49;4.95;;;1.55;;
14052;SDS011;7101;51.600;7.310;2023-03-31T07:47:20;3.85;;;1.58;;
14052;SDS011;7101;51.600;7.310;2023-03-31T07:49:48;3.90;;;1.50;;
14052;SDS011;7101;51.600;7.310;2023-03-31T07:54:55;4.45;;;1.75;;
14052;SDS011;7101;51.600;7.310;2023-03-31T07:57:26;4.85;;;1.90;;
14052;SDS011;7101;51.600;7.310;2023-03-31T08:00:01;5.10;;;1.63;;
14052;SDS011;7101;51.600;7.310;2023-03-31T08:02:39;4.93;;;1.73;;
14052;SDS011;7101;51.600;7.310;2023-03-31T08:05:07;5.50;;;1.70;;
14052;SDS011;7101;51.600;7.310;2023-03-31T08:07:35;4.93;;;1.92;;
14052;SDS011;7101;51.600;7.310;2023-03-31T08:10:06;5.63;;;2.08;;
14052;SDS011;7101;51.600;7.310;2023-03-31T08:12:40;3.97;;;1.90;;
14052;SDS011;7101;51.600;7.310;2023-03-31T08:15:14;5.30;;;2.10;;
14052;SDS011;7101;51.600;7.310;2023-03-31T08:17:41;6.15;;;2.17;;
14052;SDS011;7101;51.600;7.310;2023-03-31T08:20:08;6.10;;;2.33;;
14052;SDS011;7101;51.600;7.310;2023-03-31T08:22:35;7.75;;;2.88;;
14052;SDS011;7101;51.600;7.310;2023-03-31T08:25:03;5.80;;;2.38;;
14052;SDS011;7101;51.600;7.310;2023-03-31T08:27:33;7.38;;;2.60;;
14052;SDS011;7101;51.600;7.310;2023-03-31T08:30:00;5.15;;;1.80;;
14052;SDS011;7101;51.600;7.310;2023-03-31T08:32:29;6.80;;;2.92;;
14052;SDS011;7101;51.600;7.310;2023-03-31T08:34:56;6.07;;;2.70;;
14052;SDS011;7101;51.600;7.310;2023-03-31T08:37:23;10.93;;;4.95;;
14052;SDS011;7101;51.600;7.310;2023-03-31T08:39:52;5.22;;;3.03;;
14052;SDS011;7101;51.600;7.310;2023-03-31T08:42:20;8.18;;;2.92;;
14052;SDS011;7101;51.600;7.310;2023-03-31T08:44:58;3.47;;;2.80;;
14052;SDS011;7101;51.600;7.310;2023-03-31T08:47:28;6.15;;;2.10;;
14052;SDS011;7101;51.600;7.310;2023-03-31T08:49:58;5.85;;;2.35;;
14052;SDS011;7101;51.600;7.310;2023-03-31T08:55:05;6.80;;;2.00;;
14052;SDS011;7101;51.600;7.310;2023-03-31T08:57:49;6.97;;;1.70;;
14052;SDS011;7101;51.600;7.310;2023-03-31T09:00:20;5.10;;;2.20;;
14052;SDS011;7101;51.600;7.310;2023-03-31T09:02:50;3.72;;;1.80;;
14052;SDS011;7101;51.600;7.310;2023-03-31T09:05:25;6.13;;;2.65;;
14052;SDS011;7101;51.600;7.310;2023-03-31T09:08:31;5.03;;;2.00;;
14052;SDS011;7101;51.600;7.310;2023-03-31T09:11:04;3.90;;;1.63;;
14052;SDS011;7101;51.600;7.310;2023-03-31T09:14:04;3.55;;;1.67;;
14052;SDS011;7101;51.600;7.310;2023-03-31T09:16:51;6.07;;;2.00;;
14052;SDS011;7101;51.600;7.310;2023-03-31T09:19:28;4.53;;;1.73;;
14052;SDS011;7101;51.600;7.310;2023-03-31T09:22:01;3.88;;;1.40;;
14052;SDS011;7101;51.600;7.310;2023-03-31T09:24:31;5.57;;;2.00;;
14052;SDS011;7101;51.600;7.310;2023-03-31T09:27:02;3.28;;;1.48;;
14052;SDS011;7101;51.600;7.310;2023-03-31T09:29:39;3.38;;;1.80;;
14052;SDS011;7101;51.600;7.310;2023-03-31T09:32:12;6.65;;;1.98;;
14052;SDS011;7101;51.600;7.310;2023-03-31T09:34:41;5.47;;;2.42;;
14052;SDS011;7101;51.600;7.310;2023-03-31T09:37:09;5.90;;;1.75;;
14052;SDS011;7101;51.600;7.310;2023-03-31T09:39:37;5.47;;;1.95;;
14052;SDS011;7101;51.600;7.310;2023-03-31T09:42:04;6.22;;;2.67;;
14052;SDS011;7101;51.600;7.310;2023-03-31T09:44:35;4.80;;;2.40;;
14052;SDS011;7101;51.600;7.310;2023-03-31T09:47:04;4.55;;;2.40;;
14052;SDS011;7101;51.600;7.310;2023-03-31T09:49:35;6.45;;;2.60;;
14052;SDS011;7101;51.600;7.310;2023-03-31T09:52:04;9.00;;;2.42;;
14052;SDS011;7101;51.600;7.310;2023-03-31T09:54:36;6.13;;;2.08;;
14052;SDS011;7101;51.600;7.310;2023-03-31T09:57:21;8.30;;;2.50;;
14052;SDS011;7101;51.600;7.310;2023-03-31T10:02:47;5.90;;;2.20;;
14052;SDS011;7101;51.600;7.310;2023-03-31T10:05:35;8.90;;;3.30;;
14052;SDS011;7101;51.600;7.310;2023-03-31T10:08:19;7.50;;;3.13;;
14052;SDS011;7101;51.600;7.310;2023-03-31T10:10:52;7.45;;;3.33;;
14052;SDS011;7101;51.600;7.310;2023-03-31T10:13:21;10.32;;;4.10;;
14052;SDS011;7101;51.600;7.310;2023-03-31T10:16:01;9.10;;;3.47;;
14052;SDS011;7101;51.600;7.310;2023-03-31T10:18:31;8.13;;;3.47;;
14052;SDS011;7101;51.600;7.310;2023-03-31T10:21:01;12.65;;;3.72;;
14052;SDS011;7101;51.600;7.310;2023-03-31T10:23:36;8.65;;;3.17;;
14052;SDS011;7101;51.600;7.310;2023-03-31T10:26:04;5.25;;;2.78;;
14052;SDS011;7101;51.600;7.310;2023-03-31T10:28:32;7.10;;;3.30;;
14052;SDS011;7101;51.600;7.310;2023-03-31T10:31:03;8.75;;;2.75;;
14052;SDS011;7101;51.600;7.310;2023-03-31T10:33:32;8.63;;;3.13;;
14052;SDS011;7101;51.600;7.310;2023-03-31T10:36:06;6.18;;;3.47;;
14052;SDS011;7101;51.600;7.310;2023-03-31T10:38:34;5.85;;;2.88;;
14052;SDS011;7101;51.600;7.310;2023-03-31T10:41:04;8.75;;;2.72;;
14052;SDS011;7101;51.600;7.310;2023-03-31T10:43:33;6.55;;;2.50;;
14052;SDS011;7101;51.600;7.310;2023-03-31T10:46:06;6.65;;;2.35;;
14052;SDS011;7101;51.600;7.310;2023-03-31T10:48:34;6.47;;;2.47;;
14052;SDS011;7101;51.600;7.310;2023-03-31T10:51:04;7.30;;;2.70;;
14052;SDS011;7101;51.600;7.310;2023-03-31T10:53:40;8.45;;;2.78;;
14052;SDS011;7101;51.600;7.310;2023-03-31T10:56:14;7.47;;;2.40;;
14052;SDS011;7101;51.600;7.310;2023-03-31T10:58:53;7.55;;;2.20;;
14052;SDS011;7101;51.600;7.310;2023-03-31T11:01:30;4.25;;;1.88;;
14052;SDS011;7101;51.600;7.310;2023-03-31T11:07:11;7.78;;;2.70;;
14052;SDS011;7101;51.600;7.310;2023-03-31T11:09:52;6.72;;;2.53;;
14052;SDS011;7101;51.600;7.310;2023-03-31T11:12:26;7.43;;;2.45;;
14052;SDS011;7101;51.600;7.310;2023-03-31T11:15:02;9.85;;;3.00;;
14052;SDS011;7101;51.600;7.310;2023-03-31T11:17:43;8.75;;;3.13;;
14052;SDS011;7101;51.600;7.310;2023-03-31T11:20:31;8.18;;;2.78;;
14052;SDS011;7101;51.600;7.310;2023-03-31T11:23:05;7.38;;;2.80;;
14052;SDS011;7101;51.600;7.310;2023-03-31T11:25:42;11.20;;;3.30;;
14052;SDS011;7101;51.600;7.310;2023-03-31T11:28:24;8.73;;;2.85;;
14052;SDS011;7101;51.600;7.310;2023-03-31T11:31:02;11.02;;;3.10;;
14052;SDS011;7101;51.600;7.310;2023-03-31T11:33:42;11.30;;;3.28;;
14052;SDS011;7101;51.600;7.310;2023-03-31T11:36:28;11.57;;;2.70;;
14052;SDS011;7101;51.600;7.310;2023-03-31T11:39:14;12.35;;;3.25;;
14052;SDS011;7101;51.600;7.310;2023-03-31T11:41:58;13.52;;;3.88;;
14052;SDS011;7101;51.600;7.310;2023-03-31T11:44:33;8.57;;;2.30;;
14052;SDS011;7101;51.600;7.310;2023-03-31T11:47:09;6.90;;;2.13;;
14052;SDS011;7101;51.600;7.310;2023-03-31T11:49:42;9.48;;;2.60;;
14052;SDS011;7101;51.600;7.310;2023-03-31T11:52:17;8.95;;;2.75;;
14052;SDS011;7101;51.600;7.310;2023-03-31T11:54:49;11.13;;;2.70;;
14052;SDS011;7101;51.600;7.310;2023-03-31T11:57:23;13.00;;;2.90;;
14052;SDS011;7101;51.600;7.310;2023-03-31T11:59:56;9.70;;;3.15;;
14052;SDS011;7101;51.600;7.310;2023-03-31T12:02:35;8.73;;;2.40;;
14052;SDS011;7101;51.600;7.310;2023-03-31T12:05:20;7.55;;;2.50;;
14052;SDS011;7101;51.600;7.310;2023-03-31T12:10:31;5.68;;;1.77;;
14052;SDS011;7101;51.600;7.310;2023-03-31T12:13:03;7.13;;;1.80;;
14052;SDS011;7101;51.600;7.310;2023-03-31T12:15:50;10.55;;;2.35;;
14052;SDS011;7101;51.600;7.310;2023-03-31T12:18:25;6.95;;;2.33;;
14052;SDS011;7101;51.600;7.310;2023-03-31T12:21:01;3.53;;;1.58;;
14052;SDS011;7101;51.600;7.310;2023-03-31T12:23:34;6.68;;;1.98;;
14052;SDS011;7101;51.600;7.310;2023-03-31T12:26:06;5.38;;;2.45;;
14052;SDS011;7101;51.600;7.310;2023-03-31T12:28:52;8.63;;;2.38;;
14052;SDS011;7101;51.600;7.310;2023-03-31T12:31:23;11.52;;;4.88;;
14052;SDS011;7101;51.600;7.310;2023-03-31T12:33:56;6.80;;;2.08;;
14052;SDS011;7101;51.600;7.310;2023-03-31T12:36:32;6.00;;;1.80;;
14052;SDS011;7101;51.600;7.310;2023-03-31T12:39:15;6.20;;;2.00;;
14052;SDS011;7101;51.600;7.310;2023-03-31T12:41:59;5.93;;;2.50;;
14052;SDS011;7101;51.600;7.310;2023-03-31T12:45:01;7.05;;;2.40;;
14052;SDS011;7101;51.600;7.310;2023-03-31T12:47:47;5.22;;;1.75;;
14052;SDS011;7101;51.600;7.310;2023-03-31T12:50:40;7.47;;;2.33;;
14052;SDS011;7101;51.600;7.310;2023-03-31T12:53:20;7.55;;;2.20;;
14052;SDS011;7101;51.600;7.310;2023-03-31T12:55:56;11.38;;;3.05;;
14052;SDS011;7101;51.600;7.310;2023-03-31T12:58:43;6.55;;;2.60;;
14052;SDS011;7101;51.600;7.310;2023-03-31T13:01:12;11.55;;;2.75;;
14052;SDS011;7101;51.600;7.310;2023-03-31T13:03:50;7.35;;;1.92;;
14052;SDS011;7101;51.600;7.310;2023-03-31T13:12:06;7.47;;;2.60;;
14052;SDS011;7101;51.600;7.310;2023-03-31T13:14:41;9.70;;;2.70;;
14052;SDS011;7101;51.600;7.310;2023-03-31T13:17:20;7.93;;;2.50;;
14052;SDS011;7101;51.600;7.310;2023-03-31T13:22:58;9.75;;;2.17;;
14052;SDS011;7101;51.600;7.310;2023-03-31T13:25:34;9.05;;;2.75;;
14052;SDS011;7101;51.600;7.310;2023-03-31T13:28:16;8.57;;;2.20;;
14052;SDS011;7101;51.600;7.310;2023-03-31T13:30:58;9.30;;;2.67;;
14052;SDS011;7101;51.600;7.310;2023-03-31T13:33:30;8.68;;;2.33;;
14052;SDS011;7101;51.600;7.310;2023-03-31T13:39:06;8.38;;;2.38;;
14052;SDS011;7101;51.600;7.310;2023-03-31T13:41:50;7.40;;;2.30;;
14052;SDS011;7101;51.600;7.310;2023-03-31T13:53:35;12.13;;;3.20;;
14052;SDS011;7101;51.600;7.310;2023-03-31T13:56:22;8.95;;;2.63;;
14052;SDS011;7101;51.600;7.310;2023-03-31T14:05:25;9.07;;;3.08;;
14052;SDS011;7101;51.600;7.310;2023-03-31T14:07:57;10.50;;;3.13;;
14052;SDS011;7101;51.600;7.310;2023-03-31T14:10:29;12.18;;;3.30;;
14052;SDS011;7101;51.600;7.310;2023-03-31T14:13:09;8.63;;;2.92;;
14052;SDS011;7101;51.600;7.310;2023-03-31T14:15:40;9.30;;;3.20;;
14052;SDS011;7101;51.600;7.310;2023-03-31T14:18:11;7.38;;;2.97;;
14052;SDS011;7101;51.600;7.310;2023-03-31T14:20:44;9.00;;;2.72;;
14052;SDS011;7101;51.600;7.310;2023-03-31T14:26:10;12.75;;;3.78;;
14052;SDS011;7101;51.600;7.310;2023-03-31T14:28:54;11.65;;;2.90;;
14052;SDS011;7101;51.600;7.310;2023-03-31T14:31:36;6.95;;;2.25;;
14052;SDS011;7101;51.600;7.310;2023-03-31T14:34:24;7.68;;;2.30;;
14052;SDS011;7101;51.600;7.310;2023-03-31T14:37:14;7.25;;;2.22;;
14052;SDS011;7101;51.600;7.310;2023-03-31T14:39:45;7.22;;;2.05;;
14052;SDS011;7101;51.600;7.310;2023-03-31T14:42:16;4.53;;;1.83;;
14052;SDS011;7101;51.600;7.310;2023-03-31T14:44:46;7.85;;;2.72;;
14052;SDS011;7101;51.600;7.310;2023-03-31T14:47:22;7.90;;;3.17;;
14052;SDS011;7101;51.600;7.310;2023-03-31T14:49:57;7.63;;;2.80;;
14052;SDS011;7101;51.600;7.310;2023-03-31T14:52:29;9.93;;;3.25;;
14052;SDS011;7101;51.600;7.310;2023-03-31T14:54:58;9.18;;;4.60;;
14052;SDS011;7101;51.600;7.310;2023-03-31T14:57:27;8.63;;;3.95;;
14052;SDS011;7101;51.600;7.310;2023-03-31T14:59:56;9.07;;;3.60;;
14052;SDS011;7101;51.600;7.310;2023-03-31T15:02:29;7.18;;;2.50;;
14052;SDS011;7101;51.600;7.310;2023-03-31T15:05:00;3.95;;;1.60;;
14052;SDS011;7101;51.600;7.310;2023-03-31T15:07:29;6.72;;;2.00;;
14052;SDS011;7101;51.600;7.310;2023-03-31T15:09:58;7.22;;;2.17;;
14052;SDS011;7101;51.600;7.310;2023-03-31T15:12:26;7.60;;;2.15;;
14052;SDS011;7101;51.600;7.310;2023-03-31T15:14:57;7.15;;;2.20;;
14052;SDS011;7101;51.600;7.310;2023-03-31T15:17:38;10.55;;;2.60;;
14052;SDS011;7101;51.600;7.310;2023-03-31T15:20:28;9.98;;;1.83;;
14052;SDS011;7101;51.600;7.310;2023-03-31T15:23:00;7.53;;;1.75;;
14052;SDS011;7101;51.600;7.310;2023-03-31T15:25:31;9.45;;;2.45;;
14052;SDS011;7101;51.600;7.310;2023-03-31T15:28:03;9.60;;;1.92;;
14052;SDS011;7101;51.600;7.310;2023-03-31T15:30:32;5.60;;;2.15;;
14052;SDS011;7101;51.600;7.310;2023-03-31T15:33:06;6.25;;;1.92;;
14052;SDS011;7101;51.600;7.310;2023-03-31T15:35:42;9.40;;;2.20;;
14052;SDS011;7101;51.600;7.310;2023-03-31T15:38:10;6.93;;;2.00;;
14052;SDS011;7101;51.600;7.310;2023-03-31T15:40:42;7.88;;;2.42;;
14052;SDS011;7101;51.600;7.310;2023-03-31T15:43:14;8.68;;;2.58;;
14052;SDS011;7101;51.600;7.310;2023-03-31T15:45:46;10.43;;;2.65;;
14052;SDS011;7101;51.600;7.310;2023-03-31T15:48:21;11.65;;;2.47;;
14052;SDS011;7101;51.600;7.310;2023-03-31T15:50:49;9.10;;;2.20;;
14052;SDS011;7101;51.600;7.310;2023-03-31T15:53:21;11.50;;;3.38;;
14052;SDS011;7101;51.600;7.310;2023-03-31T15:55:52;8.15;;;1.98;;
14052;SDS011;7101;51.600;7.310;2023-03-31T15:58:23;6.15;;;1.83;;
14052;SDS011;7101;51.600;7.310;2023-03-31T16:01:13;7.05;;;2.28;;
14052;SDS011;7101;51.600;7.310;2023-03-31T16:03:43;7.15;;;1.83;;
14052;SDS011;7101;51.600;7.310;2023-03-31T16:06:15;5.43;;;1.98;;
14052;SDS011;7101;51.600;7.310;2023-03-31T16:08:49;4.75;;;1.60;;
14052;SDS011;7101;51.600;7.310;2023-03-31T16:11:23;6.15;;;2.35;;
14052;SDS011;7101;51.600;7.310;2023-03-31T16:13:54;8.32;;;2.75;;
14052;SDS011;7101;51.600;7.310;2023-03-31T16:16:24;7.60;;;2.83;;
14052;SDS011;7101;51.600;7.310;2023-03-31T16:18:59;7.35;;;3.03;;
14052;SDS011;7101;51.600;7.310;2023-03-31T16:21:39;9.43;;;2.70;;